sensor_id;sensor_type;location;lat;lon;timestamp;temperature;humidity
20337;DHT22;10326;53.660;10.200;2023-02-05T00:01:24;4.10;73.80
20337;DHT22;10326;53.660;10.200;2023-02-05T00:03:51;4.00;73.80
20337;DHT22;10326;53.660;10.200;2023-02-05T00:06:18;4.00;73.90
20337;DHT22;10326;53.660;10.200;2023-02-05T00:08:46;4.00;73.90
20337;DHT22;10326;53.660;10.200;2023-02-05T00:11:13;4.00;73.90
20337;DHT22;10326;53.660;10.200;2023-02-05T00:13:41;4.00;74.00
20337;DHT22;10326;53.660;10.200;2023-02-05T00:16:09;3.90;74.00
20337;DHT22;10326;53.660;10.200;2023-02-05T00:18:38;3.90;74.00
20337;DHT22;10326;53.660;10.200;2023-02-05T00:21:05;3.90;74.00
20337;DHT22;10326;53.660;10.200;2023-02-05T00:23:33;3.90;73.90
20337;DHT22;10326;53.660;10.200;2023-02-05T00:26:03;3.90;74.00
20337;DHT22;10326;53.660;10.200;2023-02-05T00:28:31;3.90;74.00
20337;DHT22;10326;53.660;10.200;2023-02-05T00:30:59;3.90;74.50
20337;DHT22;10326;53.660;10.200;2023-02-05T00:33:26;3.90;74.00
20337;DHT22;10326;53.660;10.200;2023-02-05T00:35:53;3.90;73.90
20337;DHT22;10326;53.660;10.200;2023-02-05T00:38:21;3.90;73.90
20337;DHT22;10326;53.660;10.200;2023-02-05T00:40:48;3.90;73.90
20337;DHT22;10326;53.660;10.200;2023-02-05T00:43:16;3.80;73.80
20337;DHT22;10326;53.660;10.200;2023-02-05T00:45:44;3.80;73.80
20337;DHT22;10326;53.660;10.200;2023-02-05T00:48:11;3.80;73.80
20337;DHT22;10326;53.660;10.200;2023-02-05T00:50:38;3.80;73.80
20337;DHT22;10326;53.660;10.200;2023-02-05T00:53:05;3.80;73.90
20337;DHT22;10326;53.660;10.200;2023-02-05T00:55:33;3.70;73.90
20337;DHT22;10326;53.660;10.200;2023-02-05T00:58:00;3.70;73.80
20337;DHT22;10326;53.660;10.200;2023-02-05T01:00:29;3.70;73.80
20337;DHT22;10326;53.660;10.200;2023-02-05T01:02:57;3.70;73.90
20337;DHT22;10326;53.660;10.200;2023-02-05T01:05:25;3.70;73.90
20337;DHT22;10326;53.660;10.200;2023-02-05T01:07:53;3.70;73.90
20337;DHT22;10326;53.660;10.200;2023-02-05T01:10:20;3.70;74.10
20337;DHT22;10326;53.660;10.200;2023-02-05T01:12:48;3.70;74.00
20337;DHT22;10326;53.660;10.200;2023-02-05T01:15:15;3.70;74.00
20337;DHT22;10326;53.660;10.200;2023-02-05T01:17:44;3.70;74.00
20337;DHT22;10326;53.660;10.200;2023-02-05T01:20:13;3.70;74.00
20337;DHT22;10326;53.660;10.200;2023-02-05T01:22:41;3.70;74.00
20337;DHT22;10326;53.660;10.200;2023-02-05T01:25:08;3.70;74.00
20337;DHT22;10326;53.660;10.200;2023-02-05T01:27:36;3.60;73.90
20337;DHT22;10326;53.660;10.200;2023-02-05T01:30:04;3.60;73.90
20337;DHT22;10326;53.660;10.200;2023-02-05T01:32:33;3.60;73.90
20337;DHT22;10326;53.660;10.200;2023-02-05T01:35:02;3.60;73.80
20337;DHT22;10326;53.660;10.200;2023-02-05T01:37:29;3.60;73.90
20337;DHT22;10326;53.660;10.200;2023-02-05T01:39:56;3.60;73.90
20337;DHT22;10326;53.660;10.200;2023-02-05T01:42:25;3.60;73.90
20337;DHT22;10326;53.660;10.200;2023-02-05T01:48:25;3.60;74.00
20337;DHT22;10326;53.660;10.200;2023-02-05T01:50:58;3.60;73.90
20337;DHT22;10326;53.660;10.200;2023-02-05T01:53:29;3.60;73.90
20337;DHT22;10326;53.660;10.200;2023-02-05T01:56:01;3.60;73.90
20337;DHT22;10326;53.660;10.200;2023-02-05T01:58:32;3.50;73.90
20337;DHT22;10326;53.660;10.200;2023-02-05T02:01:01;3.50;73.90
20337;DHT22;10326;53.660;10.200;2023-02-05T02:03:30;3.50;73.90
20337;DHT22;10326;53.660;10.200;2023-02-05T02:05:59;3.50;73.90
20337;DHT22;10326;53.660;10.200;2023-02-05T02:08:26;3.60;74.00
20337;DHT22;10326;53.660;10.200;2023-02-05T02:10:55;3.50;74.00
20337;DHT22;10326;53.660;10.200;2023-02-05T02:13:25;3.50;74.00
20337;DHT22;10326;53.660;10.200;2023-02-05T02:15:53;3.50;73.90
20337;DHT22;10326;53.660;10.200;2023-02-05T02:18:21;3.50;73.90
20337;DHT22;10326;53.660;10.200;2023-02-05T02:21:25;3.50;73.90
20337;DHT22;10326;53.660;10.200;2023-02-05T02:24:33;3.50;74.00
20337;DHT22;10326;53.660;10.200;2023-02-05T02:27:38;3.50;73.90
20337;DHT22;10326;53.660;10.200;2023-02-05T02:30:10;3.50;73.90
20337;DHT22;10326;53.660;10.200;2023-02-05T02:32:44;3.50;74.50
20337;DHT22;10326;53.660;10.200;2023-02-05T02:35:19;3.50;74.00
20337;DHT22;10326;53.660;10.200;2023-02-05T02:37:55;3.50;74.00
20337;DHT22;10326;53.660;10.200;2023-02-05T02:40:30;3.50;74.10
20337;DHT22;10326;53.660;10.200;2023-02-05T02:43:05;3.50;74.10
20337;DHT22;10326;53.660;10.200;2023-02-05T02:45:36;3.50;74.20
20337;DHT22;10326;53.660;10.200;2023-02-05T02:48:09;3.50;74.80
20337;DHT22;10326;53.660;10.200;2023-02-05T02:50:40;3.50;74.30
20337;DHT22;10326;53.660;10.200;2023-02-05T02:53:13;3.50;74.30
20337;DHT22;10326;53.660;10.200;2023-02-05T02:55:43;3.50;74.30
20337;DHT22;10326;53.660;10.200;2023-02-05T02:58:17;3.50;74.30
20337;DHT22;10326;53.660;10.200;2023-02-05T03:00:46;3.50;74.40
20337;DHT22;10326;53.660;10.200;2023-02-05T03:03:16;3.50;74.40
20337;DHT22;10326;53.660;10.200;2023-02-05T03:05:47;3.50;74.40
20337;DHT22;10326;53.660;10.200;2023-02-05T03:08:20;3.60;74.50
20337;DHT22;10326;53.660;10.200;2023-02-05T03:10:54;3.60;74.50
20337;DHT22;10326;53.660;10.200;2023-02-05T03:13:26;3.60;74.50
20337;DHT22;10326;53.660;10.200;2023-02-05T03:15:57;3.60;74.40
20337;DHT22;10326;53.660;10.200;2023-02-05T03:18:24;3.60;74.40
20337;DHT22;10326;53.660;10.200;2023-02-05T03:20:53;3.60;74.40
20337;DHT22;10326;53.660;10.200;2023-02-05T03:23:22;3.60;74.40
20337;DHT22;10326;53.660;10.200;2023-02-05T03:25:49;3.60;74.30
20337;DHT22;10326;53.660;10.200;2023-02-05T03:28:22;3.70;74.40
20337;DHT22;10326;53.660;10.200;2023-02-05T03:30:56;3.70;74.50
20337;DHT22;10326;53.660;10.200;2023-02-05T03:33:37;3.70;74.50
20337;DHT22;10326;53.660;10.200;2023-02-05T03:36:15;3.70;74.50
20337;DHT22;10326;53.660;10.200;2023-02-05T03:38:54;3.70;74.50
20337;DHT22;10326;53.660;10.200;2023-02-05T03:41:37;3.70;74.50
20337;DHT22;10326;53.660;10.200;2023-02-05T03:44:34;3.70;74.50
20337;DHT22;10326;53.660;10.200;2023-02-05T03:47:30;3.70;74.50
20337;DHT22;10326;53.660;10.200;2023-02-05T03:50:09;3.80;74.50
20337;DHT22;10326;53.660;10.200;2023-02-05T03:52:42;3.80;74.40
20337;DHT22;10326;53.660;10.200;2023-02-05T03:55:16;3.70;74.40
20337;DHT22;10326;53.660;10.200;2023-02-05T03:57:51;3.80;74.40
20337;DHT22;10326;53.660;10.200;2023-02-05T04:00:20;3.70;74.30
20337;DHT22;10326;53.660;10.200;2023-02-05T04:02:53;3.70;74.20
20337;DHT22;10326;53.660;10.200;2023-02-05T04:05:25;3.70;74.20
20337;DHT22;10326;53.660;10.200;2023-02-05T04:07:54;3.70;74.10
20337;DHT22;10326;53.660;10.200;2023-02-05T04:10:25;3.70;74.10
20337;DHT22;10326;53.660;10.200;2023-02-05T04:12:52;3.70;74.10
20337;DHT22;10326;53.660;10.200;2023-02-05T04:15:21;3.70;74.10
20337;DHT22;10326;53.660;10.200;2023-02-05T04:17:54;3.70;74.10
20337;DHT22;10326;53.660;10.200;2023-02-05T04:20:23;3.70;74.00
20337;DHT22;10326;53.660;10.200;2023-02-05T04:22:50;3.70;74.00
20337;DHT22;10326;53.660;10.200;2023-02-05T04:25:17;3.60;73.90
20337;DHT22;10326;53.660;10.200;2023-02-05T04:27:46;3.60;74.00
20337;DHT22;10326;53.660;10.200;2023-02-05T04:30:14;3.60;74.00
20337;DHT22;10326;53.660;10.200;2023-02-05T04:32:43;3.60;74.00
20337;DHT22;10326;53.660;10.200;2023-02-05T04:35:12;3.60;74.10
20337;DHT22;10326;53.660;10.200;2023-02-05T04:37:40;3.60;74.10
20337;DHT22;10326;53.660;10.200;2023-02-05T04:40:08;3.60;74.10
20337;DHT22;10326;53.660;10.200;2023-02-05T04:42:35;3.60;74.20
20337;DHT22;10326;53.660;10.200;2023-02-05T04:45:03;3.60;74.10
20337;DHT22;10326;53.660;10.200;2023-02-05T04:47:31;3.60;74.20
20337;DHT22;10326;53.660;10.200;2023-02-05T04:49:58;3.60;74.10
20337;DHT22;10326;53.660;10.200;2023-02-05T04:52:26;3.60;74.10
20337;DHT22;10326;53.660;10.200;2023-02-05T04:54:53;3.60;74.10
20337;DHT22;10326;53.660;10.200;2023-02-05T04:57:20;3.60;74.20
20337;DHT22;10326;53.660;10.200;2023-02-05T04:59:48;3.60;74.20
20337;DHT22;10326;53.660;10.200;2023-02-05T05:02:16;3.60;74.30
20337;DHT22;10326;53.660;10.200;2023-02-05T05:04:43;3.60;74.40
20337;DHT22;10326;53.660;10.200;2023-02-05T05:07:10;3.60;74.40
20337;DHT22;10326;53.660;10.200;2023-02-05T05:09:38;3.60;74.30
20337;DHT22;10326;53.660;10.200;2023-02-05T05:12:05;3.60;74.40
20337;DHT22;10326;53.660;10.200;2023-02-05T05:14:32;3.60;74.30
20337;DHT22;10326;53.660;10.200;2023-02-05T05:17:00;3.60;74.30
20337;DHT22;10326;53.660;10.200;2023-02-05T05:19:27;3.60;74.40
20337;DHT22;10326;53.660;10.200;2023-02-05T05:21:54;3.60;74.40
20337;DHT22;10326;53.660;10.200;2023-02-05T05:24:21;3.60;74.50
20337;DHT22;10326;53.660;10.200;2023-02-05T05:26:49;3.60;74.50
20337;DHT22;10326;53.660;10.200;2023-02-05T05:29:16;3.60;74.50
20337;DHT22;10326;53.660;10.200;2023-02-05T05:31:43;3.70;74.60
20337;DHT22;10326;53.660;10.200;2023-02-05T05:34:10;3.70;74.60
20337;DHT22;10326;53.660;10.200;2023-02-05T05:36:37;3.70;74.50
20337;DHT22;10326;53.660;10.200;2023-02-05T05:39:08;3.70;74.50
20337;DHT22;10326;53.660;10.200;2023-02-05T05:41:54;3.70;74.60
20337;DHT22;10326;53.660;10.200;2023-02-05T05:44:38;3.70;74.50
20337;DHT22;10326;53.660;10.200;2023-02-05T05:47:05;3.70;74.60
20337;DHT22;10326;53.660;10.200;2023-02-05T05:49:32;3.70;74.60
20337;DHT22;10326;53.660;10.200;2023-02-05T05:51:59;3.70;74.60
20337;DHT22;10326;53.660;10.200;2023-02-05T05:54:26;3.70;74.50
20337;DHT22;10326;53.660;10.200;2023-02-05T05:56:55;3.80;74.70
20337;DHT22;10326;53.660;10.200;2023-02-05T05:59:22;3.80;74.70
20337;DHT22;10326;53.660;10.200;2023-02-05T06:01:49;3.80;74.70
20337;DHT22;10326;53.660;10.200;2023-02-05T06:04:16;3.80;74.70
20337;DHT22;10326;53.660;10.200;2023-02-05T06:06:43;3.80;74.70
20337;DHT22;10326;53.660;10.200;2023-02-05T06:09:10;3.80;74.60
20337;DHT22;10326;53.660;10.200;2023-02-05T06:11:37;3.80;74.60
20337;DHT22;10326;53.660;10.200;2023-02-05T06:14:05;3.80;74.50
20337;DHT22;10326;53.660;10.200;2023-02-05T06:16:32;3.80;74.50
20337;DHT22;10326;53.660;10.200;2023-02-05T06:18:59;3.80;74.50
20337;DHT22;10326;53.660;10.200;2023-02-05T06:21:26;3.80;74.60
20337;DHT22;10326;53.660;10.200;2023-02-05T06:23:53;3.80;74.60
20337;DHT22;10326;53.660;10.200;2023-02-05T06:26:20;3.80;74.70
20337;DHT22;10326;53.660;10.200;2023-02-05T06:28:47;3.80;74.70
20337;DHT22;10326;53.660;10.200;2023-02-05T06:31:16;3.80;74.60
20337;DHT22;10326;53.660;10.200;2023-02-05T06:33:43;3.80;74.50
20337;DHT22;10326;53.660;10.200;2023-02-05T06:36:10;3.80;74.50
20337;DHT22;10326;53.660;10.200;2023-02-05T06:38:37;3.80;74.60
20337;DHT22;10326;53.660;10.200;2023-02-05T06:41:04;3.80;74.60
20337;DHT22;10326;53.660;10.200;2023-02-05T06:43:31;3.90;74.70
20337;DHT22;10326;53.660;10.200;2023-02-05T06:45:58;3.80;74.50
20337;DHT22;10326;53.660;10.200;2023-02-05T06:48:26;3.80;74.60
20337;DHT22;10326;53.660;10.200;2023-02-05T06:50:53;3.80;74.60
20337;DHT22;10326;53.660;10.200;2023-02-05T06:53:20;3.80;74.60
20337;DHT22;10326;53.660;10.200;2023-02-05T06:55:47;3.90;74.80
20337;DHT22;10326;53.660;10.200;2023-02-05T06:58:14;3.80;74.80
20337;DHT22;10326;53.660;10.200;2023-02-05T07:00:41;3.90;74.90
20337;DHT22;10326;53.660;10.200;2023-02-05T07:03:08;3.90;74.90
20337;DHT22;10326;53.660;10.200;2023-02-05T07:05:36;3.90;75.50
20337;DHT22;10326;53.660;10.200;2023-02-05T07:08:05;3.90;74.90
20337;DHT22;10326;53.660;10.200;2023-02-05T07:10:32;3.90;74.90
20337;DHT22;10326;53.660;10.200;2023-02-05T07:13:00;3.90;74.80
20337;DHT22;10326;53.660;10.200;2023-02-05T07:15:27;3.90;74.70
20337;DHT22;10326;53.660;10.200;2023-02-05T07:17:54;3.90;74.80
20337;DHT22;10326;53.660;10.200;2023-02-05T07:20:22;3.90;74.80
20337;DHT22;10326;53.660;10.200;2023-02-05T07:22:50;4.00;74.90
20337;DHT22;10326;53.660;10.200;2023-02-05T07:25:17;4.00;74.90
20337;DHT22;10326;53.660;10.200;2023-02-05T07:27:44;4.00;74.80
20337;DHT22;10326;53.660;10.200;2023-02-05T07:30:12;4.00;74.90
20337;DHT22;10326;53.660;10.200;2023-02-05T07:32:40;3.90;74.80
20337;DHT22;10326;53.660;10.200;2023-02-05T07:35:07;4.00;74.80
20337;DHT22;10326;53.660;10.200;2023-02-05T07:37:34;4.00;74.80
20337;DHT22;10326;53.660;10.200;2023-02-05T07:40:06;4.00;74.90
20337;DHT22;10326;53.660;10.200;2023-02-05T07:42:34;4.00;74.90
20337;DHT22;10326;53.660;10.200;2023-02-05T07:45:02;4.00;74.80
20337;DHT22;10326;53.660;10.200;2023-02-05T07:47:30;4.00;74.90
20337;DHT22;10326;53.660;10.200;2023-02-05T07:49:57;4.00;74.90
20337;DHT22;10326;53.660;10.200;2023-02-05T07:52:24;4.00;74.90
20337;DHT22;10326;53.660;10.200;2023-02-05T07:54:51;4.00;74.90
20337;DHT22;10326;53.660;10.200;2023-02-05T07:57:19;4.00;74.80
20337;DHT22;10326;53.660;10.200;2023-02-05T07:59:46;4.00;74.90
20337;DHT22;10326;53.660;10.200;2023-02-05T08:02:13;4.00;74.90
20337;DHT22;10326;53.660;10.200;2023-02-05T08:04:40;4.00;74.80
20337;DHT22;10326;53.660;10.200;2023-02-05T08:07:09;4.00;74.80
20337;DHT22;10326;53.660;10.200;2023-02-05T08:09:37;4.00;74.90
20337;DHT22;10326;53.660;10.200;2023-02-05T08:12:05;4.00;75.00
20337;DHT22;10326;53.660;10.200;2023-02-05T08:14:34;4.10;74.90
20337;DHT22;10326;53.660;10.200;2023-02-05T08:17:03;4.10;74.90
20337;DHT22;10326;53.660;10.200;2023-02-05T08:19:30;4.10;74.90
20337;DHT22;10326;53.660;10.200;2023-02-05T08:21:57;4.10;75.00
20337;DHT22;10326;53.660;10.200;2023-02-05T08:24:24;4.10;75.00
20337;DHT22;10326;53.660;10.200;2023-02-05T08:26:51;4.10;75.10
20337;DHT22;10326;53.660;10.200;2023-02-05T08:29:18;4.10;75.10
20337;DHT22;10326;53.660;10.200;2023-02-05T08:31:46;4.10;75.10
20337;DHT22;10326;53.660;10.200;2023-02-05T08:34:14;4.10;74.90
20337;DHT22;10326;53.660;10.200;2023-02-05T08:36:41;4.10;75.00
20337;DHT22;10326;53.660;10.200;2023-02-05T08:39:08;4.10;75.00
20337;DHT22;10326;53.660;10.200;2023-02-05T08:41:35;4.20;75.10
20337;DHT22;10326;53.660;10.200;2023-02-05T08:44:03;4.10;75.20
20337;DHT22;10326;53.660;10.200;2023-02-05T08:46:30;4.20;75.30
20337;DHT22;10326;53.660;10.200;2023-02-05T08:49:00;4.20;75.30
20337;DHT22;10326;53.660;10.200;2023-02-05T08:51:27;4.20;75.40
20337;DHT22;10326;53.660;10.200;2023-02-05T08:53:54;4.20;75.30
20337;DHT22;10326;53.660;10.200;2023-02-05T08:56:21;4.30;75.40
20337;DHT22;10326;53.660;10.200;2023-02-05T08:58:48;4.30;75.40
20337;DHT22;10326;53.660;10.200;2023-02-05T09:01:16;4.30;75.30
20337;DHT22;10326;53.660;10.200;2023-02-05T09:03:43;4.30;75.40
20337;DHT22;10326;53.660;10.200;2023-02-05T09:06:13;4.30;75.50
20337;DHT22;10326;53.660;10.200;2023-02-05T09:08:41;4.40;75.60
20337;DHT22;10326;53.660;10.200;2023-02-05T09:11:08;4.40;75.60
20337;DHT22;10326;53.660;10.200;2023-02-05T09:13:38;4.40;75.50
20337;DHT22;10326;53.660;10.200;2023-02-05T09:16:08;4.40;75.50
20337;DHT22;10326;53.660;10.200;2023-02-05T09:18:36;4.50;75.60
20337;DHT22;10326;53.660;10.200;2023-02-05T09:21:05;4.50;75.50
20337;DHT22;10326;53.660;10.200;2023-02-05T09:23:35;4.50;75.60
20337;DHT22;10326;53.660;10.200;2023-02-05T09:26:02;4.60;75.70
20337;DHT22;10326;53.660;10.200;2023-02-05T09:28:29;4.60;75.70
20337;DHT22;10326;53.660;10.200;2023-02-05T09:30:56;4.60;75.50
20337;DHT22;10326;53.660;10.200;2023-02-05T09:33:23;4.60;75.40
20337;DHT22;10326;53.660;10.200;2023-02-05T09:35:50;4.60;75.30
20337;DHT22;10326;53.660;10.200;2023-02-05T09:38:17;4.70;75.60
20337;DHT22;10326;53.660;10.200;2023-02-05T09:40:54;4.70;75.60
20337;DHT22;10326;53.660;10.200;2023-02-05T09:43:33;4.70;75.70
20337;DHT22;10326;53.660;10.200;2023-02-05T09:46:09;4.70;75.80
20337;DHT22;10326;53.660;10.200;2023-02-05T09:48:45;4.80;75.90
20337;DHT22;10326;53.660;10.200;2023-02-05T09:51:20;4.80;75.90
20337;DHT22;10326;53.660;10.200;2023-02-05T09:53:54;4.90;75.90
20337;DHT22;10326;53.660;10.200;2023-02-05T09:56:24;4.90;75.90
20337;DHT22;10326;53.660;10.200;2023-02-05T09:58:53;4.90;76.00
20337;DHT22;10326;53.660;10.200;2023-02-05T10:01:28;4.90;76.00
20337;DHT22;10326;53.660;10.200;2023-02-05T10:04:03;5.00;76.20
20337;DHT22;10326;53.660;10.200;2023-02-05T10:13:03;5.10;76.30
20337;DHT22;10326;53.660;10.200;2023-02-05T10:15:50;5.20;76.10
20337;DHT22;10326;53.660;10.200;2023-02-05T10:18:27;5.20;76.10
20337;DHT22;10326;53.660;10.200;2023-02-05T10:21:02;5.20;76.10
20337;DHT22;10326;53.660;10.200;2023-02-05T10:23:48;5.30;76.30
20337;DHT22;10326;53.660;10.200;2023-02-05T10:26:24;5.30;76.30
20337;DHT22;10326;53.660;10.200;2023-02-05T10:29:10;5.40;76.20
20337;DHT22;10326;53.660;10.200;2023-02-05T10:32:13;5.40;76.20
20337;DHT22;10326;53.660;10.200;2023-02-05T10:34:57;5.40;76.20
20337;DHT22;10326;53.660;10.200;2023-02-05T10:37:36;5.50;76.10
20337;DHT22;10326;53.660;10.200;2023-02-05T10:40:13;5.50;76.20
20337;DHT22;10326;53.660;10.200;2023-02-05T10:42:44;5.50;76.30
20337;DHT22;10326;53.660;10.200;2023-02-05T10:45:19;5.60;76.20
20337;DHT22;10326;53.660;10.200;2023-02-05T10:48:15;5.60;76.00
20337;DHT22;10326;53.660;10.200;2023-02-05T10:50:53;5.60;75.70
20337;DHT22;10326;53.660;10.200;2023-02-05T10:53:24;5.70;76.00
20337;DHT22;10326;53.660;10.200;2023-02-05T10:55:53;5.70;76.10
20337;DHT22;10326;53.660;10.200;2023-02-05T10:58:37;5.70;76.10
20337;DHT22;10326;53.660;10.200;2023-02-05T11:01:11;5.80;76.30
20337;DHT22;10326;53.660;10.200;2023-02-05T11:03:48;5.80;76.30
20337;DHT22;10326;53.660;10.200;2023-02-05T11:06:19;5.80;76.10
20337;DHT22;10326;53.660;10.200;2023-02-05T11:08:55;5.90;76.10
20337;DHT22;10326;53.660;10.200;2023-02-05T11:11:28;5.90;76.10
20337;DHT22;10326;53.660;10.200;2023-02-05T11:13:58;6.00;76.10
20337;DHT22;10326;53.660;10.200;2023-02-05T11:16:36;6.00;76.10
20337;DHT22;10326;53.660;10.200;2023-02-05T11:19:17;6.00;76.00
20337;DHT22;10326;53.660;10.200;2023-02-05T11:21:49;6.10;75.80
20337;DHT22;10326;53.660;10.200;2023-02-05T11:24:25;6.10;75.80
20337;DHT22;10326;53.660;10.200;2023-02-05T11:27:18;6.10;75.80
20337;DHT22;10326;53.660;10.200;2023-02-05T11:29:51;6.10;75.50
20337;DHT22;10326;53.660;10.200;2023-02-05T11:32:21;6.10;75.70
20337;DHT22;10326;53.660;10.200;2023-02-05T11:35:08;6.10;75.80
20337;DHT22;10326;53.660;10.200;2023-02-05T11:37:43;6.20;75.90
20337;DHT22;10326;53.660;10.200;2023-02-05T11:40:23;6.20;75.90
20337;DHT22;10326;53.660;10.200;2023-02-05T11:43:01;6.20;75.60
20337;DHT22;10326;53.660;10.200;2023-02-05T11:45:31;6.20;75.50
20337;DHT22;10326;53.660;10.200;2023-02-05T11:48:04;6.30;75.60
20337;DHT22;10326;53.660;10.200;2023-02-05T11:50:32;6.20;75.50
20337;DHT22;10326;53.660;10.200;2023-02-05T11:53:11;6.30;75.50
20337;DHT22;10326;53.660;10.200;2023-02-05T11:55:42;6.30;75.20
20337;DHT22;10326;53.660;10.200;2023-02-05T11:58:19;6.30;75.20
20337;DHT22;10326;53.660;10.200;2023-02-05T12:00:53;6.30;75.40
20337;DHT22;10326;53.660;10.200;2023-02-05T12:03:25;6.30;75.50
20337;DHT22;10326;53.660;10.200;2023-02-05T12:05:59;6.30;75.50
20337;DHT22;10326;53.660;10.200;2023-02-05T12:08:35;6.30;75.30
20337;DHT22;10326;53.660;10.200;2023-02-05T12:11:19;6.30;75.30
20337;DHT22;10326;53.660;10.200;2023-02-05T12:13:56;6.30;75.20
20337;DHT22;10326;53.660;10.200;2023-02-05T12:16:39;6.30;75.30
20337;DHT22;10326;53.660;10.200;2023-02-05T12:19:17;6.30;75.50
20337;DHT22;10326;53.660;10.200;2023-02-05T12:21:48;6.30;75.50
20337;DHT22;10326;53.660;10.200;2023-02-05T12:27:26;6.40;75.40
20337;DHT22;10326;53.660;10.200;2023-02-05T12:30:10;6.40;75.40
20337;DHT22;10326;53.660;10.200;2023-02-05T12:32:51;6.40;75.30
20337;DHT22;10326;53.660;10.200;2023-02-05T12:35:32;6.40;75.50
20337;DHT22;10326;53.660;10.200;2023-02-05T12:38:13;6.40;75.40
20337;DHT22;10326;53.660;10.200;2023-02-05T12:40:54;6.50;75.40
20337;DHT22;10326;53.660;10.200;2023-02-05T12:43:36;6.50;75.30
20337;DHT22;10326;53.660;10.200;2023-02-05T12:46:13;6.50;75.00
20337;DHT22;10326;53.660;10.200;2023-02-05T12:49:00;6.50;75.20
20337;DHT22;10326;53.660;10.200;2023-02-05T12:51:44;6.50;75.30
20337;DHT22;10326;53.660;10.200;2023-02-05T12:54:49;6.50;75.70
20337;DHT22;10326;53.660;10.200;2023-02-05T12:57:23;6.60;76.20
20337;DHT22;10326;53.660;10.200;2023-02-05T12:59:54;6.70;77.40
20337;DHT22;10326;53.660;10.200;2023-02-05T13:02:29;6.80;78.60
20337;DHT22;10326;53.660;10.200;2023-02-05T13:05:07;7.00;79.50
20337;DHT22;10326;53.660;10.200;2023-02-05T13:07:45;7.30;80.50
20337;DHT22;10326;53.660;10.200;2023-02-05T13:10:16;7.50;80.60
20337;DHT22;10326;53.660;10.200;2023-02-05T13:12:48;7.80;79.70
20337;DHT22;10326;53.660;10.200;2023-02-05T13:15:19;8.00;78.10
20337;DHT22;10326;53.660;10.200;2023-02-05T13:17:53;8.10;77.20
20337;DHT22;10326;53.660;10.200;2023-02-05T13:20:25;8.20;75.80
20337;DHT22;10326;53.660;10.200;2023-02-05T13:23:11;8.30;75.70
20337;DHT22;10326;53.660;10.200;2023-02-05T13:25:57;8.30;75.10
20337;DHT22;10326;53.660;10.200;2023-02-05T13:28:45;8.20;75.00
20337;DHT22;10326;53.660;10.200;2023-02-05T13:31:21;8.20;74.90
20337;DHT22;10326;53.660;10.200;2023-02-05T13:33:53;8.20;74.90
20337;DHT22;10326;53.660;10.200;2023-02-05T13:40:09;8.10;74.20
20337;DHT22;10326;53.660;10.200;2023-02-05T13:43:10;8.10;73.80
20337;DHT22;10326;53.660;10.200;2023-02-05T13:46:25;8.00;73.90
20337;DHT22;10326;53.660;10.200;2023-02-05T13:55:38;7.90;74.00
20337;DHT22;10326;53.660;10.200;2023-02-05T13:58:19;7.90;73.90
20337;DHT22;10326;53.660;10.200;2023-02-05T14:00:53;7.80;73.90
20337;DHT22;10326;53.660;10.200;2023-02-05T14:03:33;7.80;73.60
20337;DHT22;10326;53.660;10.200;2023-02-05T14:06:15;7.80;73.50
20337;DHT22;10326;53.660;10.200;2023-02-05T14:08:47;7.70;73.20
20337;DHT22;10326;53.660;10.200;2023-02-05T14:11:17;7.70;73.80
20337;DHT22;10326;53.660;10.200;2023-02-05T14:14:12;7.60;73.40
20337;DHT22;10326;53.660;10.200;2023-02-05T14:16:47;7.60;73.20
20337;DHT22;10326;53.660;10.200;2023-02-05T14:19:17;7.50;73.50
20337;DHT22;10326;53.660;10.200;2023-02-05T14:22:11;7.50;73.50
20337;DHT22;10326;53.660;10.200;2023-02-05T14:25:00;7.40;72.90
20337;DHT22;10326;53.660;10.200;2023-02-05T14:27:47;7.40;73.50
20337;DHT22;10326;53.660;10.200;2023-02-05T14:30:32;7.30;73.40
20337;DHT22;10326;53.660;10.200;2023-02-05T14:33:24;7.30;73.40
20337;DHT22;10326;53.660;10.200;2023-02-05T14:36:37;7.30;73.70
20337;DHT22;10326;53.660;10.200;2023-02-05T14:39:17;7.30;73.30
20337;DHT22;10326;53.660;10.200;2023-02-05T14:41:48;7.30;73.50
20337;DHT22;10326;53.660;10.200;2023-02-05T14:44:24;7.30;73.60
20337;DHT22;10326;53.660;10.200;2023-02-05T14:46:56;7.20;73.30
20337;DHT22;10326;53.660;10.200;2023-02-05T14:49:29;7.20;73.30
20337;DHT22;10326;53.660;10.200;2023-02-05T14:52:05;7.20;73.60
20337;DHT22;10326;53.660;10.200;2023-02-05T14:54:45;7.20;73.70
20337;DHT22;10326;53.660;10.200;2023-02-05T14:57:19;7.20;73.70
20337;DHT22;10326;53.660;10.200;2023-02-05T14:59:54;7.20;73.90
20337;DHT22;10326;53.660;10.200;2023-02-05T15:05:50;7.20;73.60
20337;DHT22;10326;53.660;10.200;2023-02-05T15:08:34;7.20;73.80
20337;DHT22;10326;53.660;10.200;2023-02-05T15:11:11;7.30;73.80
20337;DHT22;10326;53.660;10.200;2023-02-05T15:13:41;7.20;73.50
20337;DHT22;10326;53.660;10.200;2023-02-05T15:20:34;7.20;73.10
20337;DHT22;10326;53.660;10.200;2023-02-05T15:23:19;7.10;72.90
20337;DHT22;10326;53.660;10.200;2023-02-05T15:25:57;7.10;73.20
20337;DHT22;10326;53.660;10.200;2023-02-05T15:28:30;7.00;73.30
20337;DHT22;10326;53.660;10.200;2023-02-05T15:31:10;7.00;73.50
20337;DHT22;10326;53.660;10.200;2023-02-05T15:33:58;7.00;73.50
20337;DHT22;10326;53.660;10.200;2023-02-05T15:36:34;7.00;73.60
20337;DHT22;10326;53.660;10.200;2023-02-05T15:39:16;7.00;73.70
20337;DHT22;10326;53.660;10.200;2023-02-05T15:41:46;7.00;73.50
20337;DHT22;10326;53.660;10.200;2023-02-05T15:44:26;7.00;73.80
20337;DHT22;10326;53.660;10.200;2023-02-05T15:46:55;6.90;73.80
20337;DHT22;10326;53.660;10.200;2023-02-05T15:49:30;7.00;74.00
20337;DHT22;10326;53.660;10.200;2023-02-05T15:52:00;6.90;74.00
20337;DHT22;10326;53.660;10.200;2023-02-05T15:54:31;6.90;74.10
20337;DHT22;10326;53.660;10.200;2023-02-05T15:57:01;7.00;74.30
20337;DHT22;10326;53.660;10.200;2023-02-05T15:59:30;6.90;74.20
20337;DHT22;10326;53.660;10.200;2023-02-05T16:02:04;6.90;74.20
20337;DHT22;10326;53.660;10.200;2023-02-05T16:04:36;6.90;74.30
20337;DHT22;10326;53.660;10.200;2023-02-05T16:07:17;6.90;74.30
20337;DHT22;10326;53.660;10.200;2023-02-05T16:09:46;7.00;74.30
20337;DHT22;10326;53.660;10.200;2023-02-05T16:12:14;7.00;74.40
20337;DHT22;10326;53.660;10.200;2023-02-05T16:14:42;7.00;74.20
20337;DHT22;10326;53.660;10.200;2023-02-05T16:17:12;6.90;74.10
20337;DHT22;10326;53.660;10.200;2023-02-05T16:19:45;6.90;74.20
20337;DHT22;10326;53.660;10.200;2023-02-05T16:22:22;6.90;74.30
20337;DHT22;10326;53.660;10.200;2023-02-05T16:24:57;6.90;74.40
20337;DHT22;10326;53.660;10.200;2023-02-05T16:27:32;6.90;74.40
20337;DHT22;10326;53.660;10.200;2023-02-05T16:30:10;6.90;74.40
20337;DHT22;10326;53.660;10.200;2023-02-05T16:32:41;6.90;74.40
20337;DHT22;10326;53.660;10.200;2023-02-05T16:35:20;6.90;74.40